No particular awareness of the weather is required.    There are no Weather-warnings


Meteo18 Weather Cam more information Meteo18 Weather Cam


Thunder radar more information blitzortung!


Rain radar more information rain snow radar


Visit our other weather sites:

Template documentation
and downloads

And another site



Weather Underground History page Text

Daily Summary for June 13, 2017 Units:  Both    English   Metric
« Previous Day
Next Day »
Daily Weekly Monthly Yearly Custom
  High: Low: Average:
Temperature: TemperatureC °F /  -17.8 °C 12.4 °F /  -10.9 °C 19 °F /  -7.2 °C
Dew Point: DewpointC °F /  -17.8 °C 9.9 °F /  -12.3 °C 12.2 °F /  -11 °C
Humidity: Humidity % 48 % 66 %
Wind Speed: WindSpeedKMH mph /  0 km/h - 7.4 mph /  11.9 km/h
Wind Gust: WindSpeedGustKMH mph /  0 km/h - -
Wind:- - East
Pressure: PressurehPa in /  0 hPa 1016.1 in /  34405.1 hPa -
Precipitation: 0.0 in /  0 mm    
Historical Graphs
 
 
Tabular Data for June 13, 2017
Time Temperature Dew Point Pressure Wind Wind Speed Wind Gust Humidity Rainfall Rate (Hourly)
TemperatureC °F /  -17.8 °C DewpointC °F /  -17.8 °C PressurehPa in /  0 hPa Calm     Humidity % HourlyPrecipMM in /  0 mm
00:02 15.9 °F /  -8.9 °C 11.1 °F /  -11.6 °C 1020.5 in /  34554.1 hPa NNW 4.8 mph /  7.7 km/h 9.7 mph /  15.6 km/h 73 % 0.0 in /  0 mm
00:07 15.8 °F /  -9 °C 11.0 °F /  -11.7 °C 1020.5 in /  34554.1 hPa NNW 1.6 mph /  2.6 km/h 9.7 mph /  15.6 km/h 73 % 0.0 in /  0 mm
00:12 15.6 °F /  -9.1 °C 11.0 °F /  -11.7 °C 1020.5 in /  34554.1 hPa NNW 3.2 mph /  5.1 km/h 9.7 mph /  15.6 km/h 74 % 0.0 in /  0 mm
00:17 15.6 °F /  -9.1 °C 11.0 °F /  -11.7 °C 1020.2 in /  34544 hPa Calm   9.7 mph /  15.6 km/h 74 % 0.0 in /  0 mm
00:22 15.5 °F /  -9.2 °C 10.9 °F /  -11.7 °C 1020.2 in /  34544 hPa NNW 4.8 mph /  7.7 km/h 6.4 mph /  10.3 km/h 74 % 0.0 in /  0 mm
00:32 15.3 °F /  -9.3 °C 10.9 °F /  -11.7 °C 1020.2 in /  34544 hPa NNW 1.6 mph /  2.6 km/h 4.8 mph /  7.7 km/h 75 % 0.0 in /  0 mm
00:37 15.3 °F /  -9.3 °C 10.9 °F /  -11.7 °C 1020.2 in /  34544 hPa Calm   6.4 mph /  10.3 km/h 75 % 0.0 in /  0 mm
00:42 15.1 °F /  -9.4 °C 10.7 °F /  -11.8 °C 1020.2 in /  34544 hPa North 1.6 mph /  2.6 km/h 6.4 mph /  10.3 km/h 75 % 0.0 in /  0 mm
00:52 15.0 °F /  -9.4 °C 10.8 °F /  -11.8 °C 1020.2 in /  34544 hPa NNW 3.2 mph /  5.1 km/h 6.4 mph /  10.3 km/h 76 % 0.0 in /  0 mm
00:57 15.1 °F /  -9.4 °C 10.7 °F /  -11.8 °C 1020.2 in /  34544 hPa NNW 4.8 mph /  7.7 km/h 8.0 mph /  12.9 km/h 75 % 0.0 in /  0 mm
01:02 15.1 °F /  -9.4 °C 10.7 °F /  -11.8 °C 1020.2 in /  34544 hPa NNE 4.8 mph /  7.7 km/h 8.0 mph /  12.9 km/h 75 % 0.0 in /  0 mm
01:12 15.1 °F /  -9.4 °C 10.7 °F /  -11.8 °C 1020.2 in /  34544 hPa NNW 4.8 mph /  7.7 km/h 8.0 mph /  12.9 km/h 75 % 0.0 in /  0 mm
01:17 15.0 °F /  -9.4 °C 10.6 °F /  -11.9 °C 1020.2 in /  34544 hPa NNW 3.2 mph /  5.1 km/h 8.0 mph /  12.9 km/h 75 % 0.0 in /  0 mm
01:22 14.9 °F /  -9.5 °C 10.5 °F /  -11.9 °C 1020.2 in /  34544 hPa Calm   8.0 mph /  12.9 km/h 75 % 0.0 in /  0 mm
01:32 14.6 °F /  -9.7 °C 10.4 °F /  -12 °C 1020.2 in /  34544 hPa North 3.2 mph /  5.1 km/h 8.0 mph /  12.9 km/h 76 % 0.0 in /  0 mm
01:42 14.5 °F /  -9.7 °C 10.5 °F /  -11.9 °C 1020.2 in /  34544 hPa ENE 4.8 mph /  7.7 km/h 6.4 mph /  10.3 km/h 77 % 0.0 in /  0 mm
01:47 14.3 °F /  -9.8 °C 10.3 °F /  -12.1 °C 1020.2 in /  34544 hPa NNW 3.2 mph /  5.1 km/h 6.4 mph /  10.3 km/h 77 % 0.0 in /  0 mm
01:52 14.1 °F /  -9.9 °C 10.3 °F /  -12.1 °C 1020.2 in /  34544 hPa North 3.2 mph /  5.1 km/h 6.4 mph /  10.3 km/h 78 % 0.0 in /  0 mm
01:57 13.9 °F /  -10.1 °C 10.3 °F /  -12.1 °C 1020.2 in /  34544 hPa NNW 1.6 mph /  2.6 km/h 6.4 mph /  10.3 km/h 79 % 0.0 in /  0 mm
02:02 14.0 °F /  -10 °C 10.2 °F /  -12.1 °C 1020.2 in /  34544 hPa North 3.2 mph /  5.1 km/h 8.0 mph /  12.9 km/h 78 % 0.0 in /  0 mm
02:07 13.9 °F /  -10.1 °C 10.1 °F /  -12.2 °C 1020.2 in /  34544 hPa NE 4.8 mph /  7.7 km/h 8.0 mph /  12.9 km/h 78 % 0.0 in /  0 mm
02:12 13.7 °F /  -10.2 °C 10.1 °F /  -12.2 °C 1020.2 in /  34544 hPa NNW 3.2 mph /  5.1 km/h 8.0 mph /  12.9 km/h 79 % 0.0 in /  0 mm
02:17 13.8 °F /  -10.1 °C 10.2 °F /  -12.1 °C 1020.2 in /  34544 hPa NW 6.4 mph /  10.3 km/h 6.4 mph /  10.3 km/h 79 % 0.0 in /  0 mm
02:22 13.9 °F /  -10.1 °C 10.3 °F /  -12.1 °C 1020.2 in /  34544 hPa NNE 1.6 mph /  2.6 km/h 8.0 mph /  12.9 km/h 79 % 0.0 in /  0 mm
02:27 13.9 °F /  -10.1 °C 10.1 °F /  -12.2 °C 1020.2 in /  34544 hPa NE 3.2 mph /  5.1 km/h 11.3 mph /  18.2 km/h 78 % 0.0 in /  0 mm
02:32 14.0 °F /  -10 °C 10.2 °F /  -12.1 °C 1020.2 in /  34544 hPa NNW 4.8 mph /  7.7 km/h 12.9 mph /  20.8 km/h 78 % 0.0 in /  0 mm
02:37 13.9 °F /  -10.1 °C 10.3 °F /  -12.1 °C 1020.2 in /  34544 hPa NE 3.2 mph /  5.1 km/h 12.9 mph /  20.8 km/h 79 % 0.0 in /  0 mm
02:42 13.9 °F /  -10.1 °C 10.3 °F /  -12.1 °C 1019.9 in /  34533.8 hPa NNE 3.2 mph /  5.1 km/h 12.9 mph /  20.8 km/h 79 % 0.0 in /  0 mm
02:47 13.9 °F /  -10.1 °C 10.3 °F /  -12.1 °C 1019.9 in /  34533.8 hPa NW 3.2 mph /  5.1 km/h 12.9 mph /  20.8 km/h 79 % 0.0 in /  0 mm
02:52 13.8 °F /  -10.1 °C 10.4 °F /  -12 °C 1019.9 in /  34533.8 hPa NNE 3.2 mph /  5.1 km/h 9.7 mph /  15.6 km/h 80 % 0.0 in /  0 mm
02:57 13.7 °F /  -10.2 °C 10.3 °F /  -12.1 °C 1019.9 in /  34533.8 hPa NNE 3.2 mph /  5.1 km/h 9.7 mph /  15.6 km/h 80 % 0.0 in /  0 mm
03:02 13.7 °F /  -10.2 °C 10.3 °F /  -12.1 °C 1019.9 in /  34533.8 hPa North 4.8 mph /  7.7 km/h 9.7 mph /  15.6 km/h 80 % 0.0 in /  0 mm
03:12 13.7 °F /  -10.2 °C 10.3 °F /  -12.1 °C 1019.9 in /  34533.8 hPa NNW 6.4 mph /  10.3 km/h 12.9 mph /  20.8 km/h 80 % 0.0 in /  0 mm
03:17 13.7 °F /  -10.2 °C 10.5 °F /  -11.9 °C 1019.9 in /  34533.8 hPa NNW 3.2 mph /  5.1 km/h 12.9 mph /  20.8 km/h 81 % 0.0 in /  0 mm
03:22 13.6 °F /  -10.2 °C 10.4 °F /  -12 °C 1019.9 in /  34533.8 hPa NNW 1.6 mph /  2.6 km/h 12.9 mph /  20.8 km/h 81 % 0.0 in /  0 mm
03:32 13.4 °F /  -10.3 °C 10.4 °F /  -12 °C 1019.9 in /  34533.8 hPa NE 1.6 mph /  2.6 km/h 12.9 mph /  20.8 km/h 82 % 0.0 in /  0 mm
03:42 13.2 °F /  -10.4 °C 10.4 °F /  -12 °C 1019.9 in /  34533.8 hPa NE 3.2 mph /  5.1 km/h 9.7 mph /  15.6 km/h 83 % 0.0 in /  0 mm
03:47 13.2 °F /  -10.4 °C 10.4 °F /  -12 °C 1019.9 in /  34533.8 hPa NNW 1.6 mph /  2.6 km/h 9.7 mph /  15.6 km/h 83 % 0.0 in /  0 mm
03:52 13.3 °F /  -10.4 °C 10.3 °F /  -12.1 °C 1019.9 in /  34533.8 hPa NE 4.8 mph /  7.7 km/h 9.7 mph /  15.6 km/h 82 % 0.0 in /  0 mm
04:02 13.2 °F /  -10.4 °C 10.4 °F /  -12 °C 1019.9 in /  34533.8 hPa North 3.2 mph /  5.1 km/h 9.7 mph /  15.6 km/h 83 % 0.0 in /  0 mm
04:07 13.2 °F /  -10.4 °C 10.4 °F /  -12 °C 1019.9 in /  34533.8 hPa Calm   9.7 mph /  15.6 km/h 83 % 0.0 in /  0 mm
04:12 13.2 °F /  -10.4 °C 10.4 °F /  -12 °C 1019.9 in /  34533.8 hPa ENE 4.8 mph /  7.7 km/h 9.7 mph /  15.6 km/h 83 % 0.0 in /  0 mm
04:17 13.1 °F /  -10.5 °C 10.3 °F /  -12.1 °C 1019.5 in /  34520.3 hPa NNW 3.2 mph /  5.1 km/h 8.0 mph /  12.9 km/h 83 % 0.0 in /  0 mm
04:22 13.1 °F /  -10.5 °C 10.3 °F /  -12.1 °C 1019.9 in /  34533.8 hPa North 3.2 mph /  5.1 km/h 8.0 mph /  12.9 km/h 83 % 0.0 in /  0 mm
04:27 13.1 °F /  -10.5 °C 10.3 °F /  -12.1 °C 1019.9 in /  34533.8 hPa North 4.8 mph /  7.7 km/h 9.7 mph /  15.6 km/h 83 % 0.0 in /  0 mm
04:32 13.0 °F /  -10.6 °C 10.2 °F /  -12.1 °C 1019.9 in /  34533.8 hPa NNE 4.8 mph /  7.7 km/h 9.7 mph /  15.6 km/h 83 % 0.0 in /  0 mm
04:37 12.9 °F /  -10.6 °C 10.1 °F /  -12.2 °C 1019.9 in /  34533.8 hPa North 8.0 mph /  12.9 km/h 9.7 mph /  15.6 km/h 83 % 0.0 in /  0 mm
04:42 12.9 °F /  -10.6 °C 10.3 °F /  -12.1 °C 1019.9 in /  34533.8 hPa NNW 4.8 mph /  7.7 km/h 9.7 mph /  15.6 km/h 84 % 0.0 in /  0 mm
04:47 12.9 °F /  -10.6 °C 10.3 °F /  -12.1 °C 1019.9 in /  34533.8 hPa Calm   9.7 mph /  15.6 km/h 84 % 0.0 in /  0 mm
04:52 12.9 °F /  -10.6 °C 10.3 °F /  -12.1 °C 1019.9 in /  34533.8 hPa Calm   9.7 mph /  15.6 km/h 84 % 0.0 in /  0 mm
04:57 12.8 °F /  -10.7 °C 10.2 °F /  -12.1 °C 1019.9 in /  34533.8 hPa NE 1.6 mph /  2.6 km/h 9.7 mph /  15.6 km/h 84 % 0.0 in /  0 mm
05:02 12.8 °F /  -10.7 °C 10.2 °F /  -12.1 °C 1019.9 in /  34533.8 hPa North 6.4 mph /  10.3 km/h 9.7 mph /  15.6 km/h 84 % 0.0 in /  0 mm
05:07 12.8 °F /  -10.7 °C 10.2 °F /  -12.1 °C 1019.9 in /  34533.8 hPa NNE 8.0 mph /  12.9 km/h 8.0 mph /  12.9 km/h 84 % 0.0 in /  0 mm
05:17 12.7 °F /  -10.7 °C 10.1 °F /  -12.2 °C 1019.5 in /  34520.3 hPa NNE 1.6 mph /  2.6 km/h 8.0 mph /  12.9 km/h 84 % 0.0 in /  0 mm
05:22 12.7 °F /  -10.7 °C 10.1 °F /  -12.2 °C 1019.5 in /  34520.3 hPa Calm   8.0 mph /  12.9 km/h 84 % 0.0 in /  0 mm
05:27 12.7 °F /  -10.7 °C 10.2 °F /  -12.1 °C 1019.5 in /  34520.3 hPa NNW 1.6 mph /  2.6 km/h 9.7 mph /  15.6 km/h 85 % 0.0 in /  0 mm
05:32 12.6 °F /  -10.8 °C 10.1 °F /  -12.2 °C 1019.5 in /  34520.3 hPa NNW 4.8 mph /  7.7 km/h 9.7 mph /  15.6 km/h 85 % 0.0 in /  0 mm
05:42 12.6 °F /  -10.8 °C 10.1 °F /  -12.2 °C 1019.5 in /  34520.3 hPa North 4.8 mph /  7.7 km/h 9.7 mph /  15.6 km/h 85 % 0.0 in /  0 mm
05:52 12.6 °F /  -10.8 °C 10.1 °F /  -12.2 °C 1019.5 in /  34520.3 hPa NE 8.0 mph /  12.9 km/h 9.7 mph /  15.6 km/h 85 % 0.0 in /  0 mm
05:57 12.6 °F /  -10.8 °C 10.1 °F /  -12.2 °C 1019.5 in /  34520.3 hPa NNE 3.2 mph /  5.1 km/h 9.7 mph /  15.6 km/h 85 % 0.0 in /  0 mm
06:02 12.6 °F /  -10.8 °C 10.1 °F /  -12.2 °C 1019.5 in /  34520.3 hPa North 4.8 mph /  7.7 km/h 11.3 mph /  18.2 km/h 85 % 0.0 in /  0 mm
06:12 12.6 °F /  -10.8 °C 10.1 °F /  -12.2 °C 1019.5 in /  34520.3 hPa ENE 4.8 mph /  7.7 km/h 11.3 mph /  18.2 km/h 85 % 0.0 in /  0 mm
06:17 12.5 °F /  -10.8 °C 10.0 °F /  -12.2 °C 1019.5 in /  34520.3 hPa NNE 3.2 mph /  5.1 km/h 11.3 mph /  18.2 km/h 85 % 0.0 in /  0 mm
06:22 12.4 °F /  -10.9 °C 9.9 °F /  -12.3 °C 1019.5 in /  34520.3 hPa NNE 9.7 mph /  15.6 km/h 11.3 mph /  18.2 km/h 85 % 0.0 in /  0 mm
06:32 12.7 °F /  -10.7 °C 10.2 °F /  -12.1 °C 1019.5 in /  34520.3 hPa NE 4.8 mph /  7.7 km/h 12.9 mph /  20.8 km/h 85 % 0.0 in /  0 mm
06:37 12.8 °F /  -10.7 °C 10.3 °F /  -12.1 °C 1019.5 in /  34520.3 hPa NE 6.4 mph /  10.3 km/h 12.9 mph /  20.8 km/h 85 % 0.0 in /  0 mm
06:42 13.1 °F /  -10.5 °C 10.5 °F /  -11.9 °C 1019.5 in /  34520.3 hPa NW 1.6 mph /  2.6 km/h 12.9 mph /  20.8 km/h 84 % 0.0 in /  0 mm
06:47 13.3 °F /  -10.4 °C 10.5 °F /  -11.9 °C 1019.5 in /  34520.3 hPa NE 4.8 mph /  7.7 km/h 12.9 mph /  20.8 km/h 83 % 0.0 in /  0 mm
06:52 13.5 °F /  -10.3 °C 10.5 °F /  -11.9 °C 1019.5 in /  34520.3 hPa NE 11.3 mph /  18.2 km/h 12.9 mph /  20.8 km/h 82 % 0.0 in /  0 mm
06:57 13.7 °F /  -10.2 °C 10.5 °F /  -11.9 °C 1019.5 in /  34520.3 hPa North 3.2 mph /  5.1 km/h 12.9 mph /  20.8 km/h 81 % 0.0 in /  0 mm
07:02 13.7 °F /  -10.2 °C 10.5 °F /  -11.9 °C 1019.5 in /  34520.3 hPa North 6.4 mph /  10.3 km/h 19.3 mph /  31.1 km/h 81 % 0.0 in /  0 mm
07:12 13.9 °F /  -10.1 °C 10.5 °F /  -11.9 °C 1019.5 in /  34520.3 hPa NNE 11.3 mph /  18.2 km/h 19.3 mph /  31.1 km/h 80 % 0.0 in /  0 mm
07:17 14.0 °F /  -10 °C 10.6 °F /  -11.9 °C 1019.5 in /  34520.3 hPa NNE 8.0 mph /  12.9 km/h 16.1 mph /  25.9 km/h 80 % 0.0 in /  0 mm
07:27 14.3 °F /  -9.8 °C 10.7 °F /  -11.8 °C 1019.5 in /  34520.3 hPa NE 8.0 mph /  12.9 km/h 19.3 mph /  31.1 km/h 79 % 0.0 in /  0 mm
07:32 14.3 °F /  -9.8 °C 10.7 °F /  -11.8 °C 1019.9 in /  34533.8 hPa NNE 6.4 mph /  10.3 km/h 19.3 mph /  31.1 km/h 79 % 0.0 in /  0 mm
07:42 14.2 °F /  -9.9 °C 10.6 °F /  -11.9 °C 1019.9 in /  34533.8 hPa NE 11.3 mph /  18.2 km/h 19.3 mph /  31.1 km/h 79 % 0.0 in /  0 mm
07:52 14.2 °F /  -9.9 °C 10.6 °F /  -11.9 °C 1019.9 in /  34533.8 hPa NE 9.7 mph /  15.6 km/h 19.3 mph /  31.1 km/h 79 % 0.0 in /  0 mm
08:02 14.2 °F /  -9.9 °C 10.8 °F /  -11.8 °C 1019.5 in /  34520.3 hPa NE 6.4 mph /  10.3 km/h 19.3 mph /  31.1 km/h 80 % 0.0 in /  0 mm
08:12 14.3 °F /  -9.8 °C 10.9 °F /  -11.7 °C 1019.5 in /  34520.3 hPa NNE 12.9 mph /  20.8 km/h 19.3 mph /  31.1 km/h 80 % 0.0 in /  0 mm
08:17 14.4 °F /  -9.8 °C 11.0 °F /  -11.7 °C 1019.5 in /  34520.3 hPa NNE 12.9 mph /  20.8 km/h 19.3 mph /  31.1 km/h 80 % 0.0 in /  0 mm
08:22 14.4 °F /  -9.8 °C 10.8 °F /  -11.8 °C 1019.5 in /  34520.3 hPa NE 11.3 mph /  18.2 km/h 19.3 mph /  31.1 km/h 79 % 0.0 in /  0 mm
08:27 14.6 °F /  -9.7 °C 11.0 °F /  -11.7 °C 1019.5 in /  34520.3 hPa East 1.6 mph /  2.6 km/h 19.3 mph /  31.1 km/h 79 % 0.0 in /  0 mm
08:32 14.7 °F /  -9.6 °C 11.1 °F /  -11.6 °C 1019.5 in /  34520.3 hPa NE 4.8 mph /  7.7 km/h 19.3 mph /  31.1 km/h 79 % 0.0 in /  0 mm
08:37 14.8 °F /  -9.6 °C 11.2 °F /  -11.6 °C 1019.9 in /  34533.8 hPa NNE 9.7 mph /  15.6 km/h 19.3 mph /  31.1 km/h 79 % 0.0 in /  0 mm
08:47 15.1 °F /  -9.4 °C 11.3 °F /  -11.5 °C 1019.9 in /  34533.8 hPa NNE 8.0 mph /  12.9 km/h 17.7 mph /  28.5 km/h 78 % 0.0 in /  0 mm
08:52 15.2 °F /  -9.3 °C 11.4 °F /  -11.4 °C 1019.9 in /  34533.8 hPa Calm   17.7 mph /  28.5 km/h 78 % 0.0 in /  0 mm
09:02 15.9 °F /  -8.9 °C 11.7 °F /  -11.3 °C 1019.5 in /  34520.3 hPa NE 16.1 mph /  25.9 km/h 16.1 mph /  25.9 km/h 76 % 0.0 in /  0 mm
09:12 16.3 °F /  -8.7 °C 11.7 °F /  -11.3 °C 1019.9 in /  34533.8 hPa NE 11.3 mph /  18.2 km/h 17.7 mph /  28.5 km/h 74 % 0.0 in /  0 mm
09:17 16.8 °F /  -8.4 °C 12.1 °F /  -11.1 °C 1019.9 in /  34533.8 hPa NNE 14.5 mph /  23.3 km/h 19.3 mph /  31.1 km/h 74 % 0.0 in /  0 mm
09:22 17.1 °F /  -8.3 °C 12.0 °F /  -11.1 °C 1019.5 in /  34520.3 hPa NNE 11.3 mph /  18.2 km/h 19.3 mph /  31.1 km/h 72 % 0.0 in /  0 mm
09:27 17.1 °F /  -8.3 °C 11.6 °F /  -11.3 °C 1019.5 in /  34520.3 hPa NE 14.5 mph /  23.3 km/h 19.3 mph /  31.1 km/h 70 % 0.0 in /  0 mm
09:32 17.2 °F /  -8.2 °C 12.1 °F /  -11.1 °C 1019.5 in /  34520.3 hPa ENE 4.8 mph /  7.7 km/h 22.5 mph /  36.2 km/h 72 % 0.0 in /  0 mm
09:37 17.5 °F /  -8.1 °C 12.2 °F /  -11 °C 1019.5 in /  34520.3 hPa NE 4.8 mph /  7.7 km/h 22.5 mph /  36.2 km/h 71 % 0.0 in /  0 mm
09:42 17.7 °F /  -7.9 °C 12.2 °F /  -11 °C 1019.5 in /  34520.3 hPa NE 6.4 mph /  10.3 km/h 22.5 mph /  36.2 km/h 70 % 0.0 in /  0 mm
09:52 17.9 °F /  -7.8 °C 12.4 °F /  -10.9 °C 1019.5 in /  34520.3 hPa NNE 12.9 mph /  20.8 km/h 22.5 mph /  36.2 km/h 70 % 0.0 in /  0 mm
09:57 17.9 °F /  -7.8 °C 11.9 °F /  -11.2 °C 1019.2 in /  34510.1 hPa East 11.3 mph /  18.2 km/h 22.5 mph /  36.2 km/h 68 % 0.0 in /  0 mm
10:02 18.1 °F /  -7.7 °C 12.5 °F /  -10.8 °C 1019.5 in /  34520.3 hPa NNE 3.2 mph /  5.1 km/h 22.5 mph /  36.2 km/h 70 % 0.0 in /  0 mm
10:12 18.1 °F /  -7.7 °C 12.3 °F /  -10.9 °C 1019.5 in /  34520.3 hPa ENE 9.7 mph /  15.6 km/h 20.9 mph /  33.6 km/h 69 % 0.0 in /  0 mm
10:17 17.9 °F /  -7.8 °C 12.1 °F /  -11.1 °C 1019.5 in /  34520.3 hPa NE 14.5 mph /  23.3 km/h 20.9 mph /  33.6 km/h 69 % 0.0 in /  0 mm
10:22 18.0 °F /  -7.8 °C 12.4 °F /  -10.9 °C 1019.5 in /  34520.3 hPa NE 11.3 mph /  18.2 km/h 20.9 mph /  33.6 km/h 70 % 0.0 in /  0 mm
10:32 18.4 °F /  -7.6 °C 12.6 °F /  -10.8 °C 1019.5 in /  34520.3 hPa NE 11.3 mph /  18.2 km/h 20.9 mph /  33.6 km/h 69 % 0.0 in /  0 mm
10:42 18.9 °F /  -7.3 °C 12.4 °F /  -10.9 °C 1019.5 in /  34520.3 hPa NNE 16.1 mph /  25.9 km/h 20.9 mph /  33.6 km/h 66 % 0.0 in /  0 mm
10:52 18.9 °F /  -7.3 °C 12.2 °F /  -11 °C 1019.5 in /  34520.3 hPa NE 8.0 mph /  12.9 km/h 22.5 mph /  36.2 km/h 65 % 0.0 in /  0 mm
10:57 18.9 °F /  -7.3 °C 11.9 °F /  -11.2 °C 1019.5 in /  34520.3 hPa NE 17.7 mph /  28.5 km/h 22.5 mph /  36.2 km/h 64 % 0.0 in /  0 mm
11:02 18.8 °F /  -7.3 °C 11.8 °F /  -11.2 °C 1019.5 in /  34520.3 hPa NE 16.1 mph /  25.9 km/h 25.7 mph /  41.4 km/h 64 % 0.0 in /  0 mm
11:07 18.8 °F /  -7.3 °C 12.1 °F /  -11.1 °C 1019.5 in /  34520.3 hPa ENE 9.7 mph /  15.6 km/h 25.7 mph /  41.4 km/h 65 % 0.0 in /  0 mm
11:12 18.9 °F /  -7.3 °C 12.2 °F /  -11 °C 1019.5 in /  34520.3 hPa NE 19.3 mph /  31.1 km/h 25.7 mph /  41.4 km/h 65 % 0.0 in /  0 mm
11:17 19.3 °F /  -7.1 °C 12.3 °F /  -10.9 °C 1019.5 in /  34520.3 hPa NNE 14.5 mph /  23.3 km/h 24.1 mph /  38.8 km/h 64 % 0.0 in /  0 mm
11:22 19.9 °F /  -6.7 °C 12.6 °F /  -10.8 °C 1019.5 in /  34520.3 hPa ENE 16.1 mph /  25.9 km/h 22.5 mph /  36.2 km/h 63 % 0.0 in /  0 mm
11:32 20.3 °F /  -6.5 °C 12.5 °F /  -10.8 °C 1019.2 in /  34510.1 hPa NE 8.0 mph /  12.9 km/h 22.5 mph /  36.2 km/h 61 % 0.0 in /  0 mm
11:42 20.8 °F /  -6.2 °C 12.5 °F /  -10.8 °C 1019.2 in /  34510.1 hPa NE 17.7 mph /  28.5 km/h 27.4 mph /  44.1 km/h 59 % 0.0 in /  0 mm
11:47 20.7 °F /  -6.3 °C 12.4 °F /  -10.9 °C 1019.2 in /  34510.1 hPa ENE 9.7 mph /  15.6 km/h 27.4 mph /  44.1 km/h 59 % 0.0 in /  0 mm
11:52 20.8 °F /  -6.2 °C 12.0 °F /  -11.1 °C 1019.2 in /  34510.1 hPa NE 12.9 mph /  20.8 km/h 24.1 mph /  38.8 km/h 57 % 0.0 in /  0 mm
11:57 20.8 °F /  -6.2 °C 12.2 °F /  -11 °C 1019.2 in /  34510.1 hPa ENE 11.3 mph /  18.2 km/h 25.7 mph /  41.4 km/h 58 % 0.0 in /  0 mm
12:02 21.0 °F /  -6.1 °C 12.4 °F /  -10.9 °C 1019.2 in /  34510.1 hPa ENE 4.8 mph /  7.7 km/h 25.7 mph /  41.4 km/h 58 % 0.0 in /  0 mm
12:12 21.2 °F /  -6 °C 12.3 °F /  -10.9 °C 1019.2 in /  34510.1 hPa NE 12.9 mph /  20.8 km/h 22.5 mph /  36.2 km/h 57 % 0.0 in /  0 mm
12:17 21.3 °F /  -5.9 °C 12.7 °F /  -10.7 °C 1018.8 in /  34496.6 hPa NE 11.3 mph /  18.2 km/h 22.5 mph /  36.2 km/h 58 % 0.0 in /  0 mm
12:22 21.5 °F /  -5.8 °C 12.1 °F /  -11.1 °C 1018.8 in /  34496.6 hPa NE 16.1 mph /  25.9 km/h 20.9 mph /  33.6 km/h 55 % 0.0 in /  0 mm
12:27 21.7 °F /  -5.7 °C 12.8 °F /  -10.7 °C 1018.8 in /  34496.6 hPa NNE 16.1 mph /  25.9 km/h 20.9 mph /  33.6 km/h 57 % 0.0 in /  0 mm
12:32 21.7 °F /  -5.7 °C 12.3 °F /  -10.9 °C 1018.8 in /  34496.6 hPa ENE 12.9 mph /  20.8 km/h 25.7 mph /  41.4 km/h 55 % 0.0 in /  0 mm
12:42 21.9 °F /  -5.6 °C 13.0 °F /  -10.6 °C 1018.8 in /  34496.6 hPa NNE 20.9 mph /  33.6 km/h 24.1 mph /  38.8 km/h 57 % 0.0 in /  0 mm
12:47 22.0 °F /  -5.6 °C 12.5 °F /  -10.8 °C 1018.8 in /  34496.6 hPa NNE 20.9 mph /  33.6 km/h 24.1 mph /  38.8 km/h 55 % 0.0 in /  0 mm
12:52 22.0 °F /  -5.6 °C 12.5 °F /  -10.8 °C 1018.8 in /  34496.6 hPa NE 4.8 mph /  7.7 km/h 24.1 mph /  38.8 km/h 55 % 0.0 in /  0 mm
12:57 22.0 °F /  -5.6 °C 12.8 °F /  -10.7 °C 1018.8 in /  34496.6 hPa NE 9.7 mph /  15.6 km/h 24.1 mph /  38.8 km/h 56 % 0.0 in /  0 mm
13:02 22.0 °F /  -5.6 °C 12.5 °F /  -10.8 °C 1018.8 in /  34496.6 hPa ENE 9.7 mph /  15.6 km/h 24.1 mph /  38.8 km/h 55 % 0.0 in /  0 mm
13:07 22.6 °F /  -5.2 °C 13.4 °F /  -10.3 °C 1018.8 in /  34496.6 hPa ENE 9.7 mph /  15.6 km/h 19.3 mph /  31.1 km/h 56 % 0.0 in /  0 mm
13:12 22.7 °F /  -5.2 °C 12.6 °F /  -10.8 °C 1018.8 in /  34496.6 hPa Calm   19.3 mph /  31.1 km/h 53 % 0.0 in /  0 mm
13:17 22.8 °F /  -5.1 °C 13.0 °F /  -10.6 °C 1018.8 in /  34496.6 hPa NE 12.9 mph /  20.8 km/h 19.3 mph /  31.1 km/h 54 % 0.0 in /  0 mm
13:22 22.9 °F /  -5.1 °C 13.1 °F /  -10.5 °C 1018.5 in /  34486.4 hPa ENE 12.9 mph /  20.8 km/h 19.3 mph /  31.1 km/h 54 % 0.0 in /  0 mm
13:32 22.7 °F /  -5.2 °C 12.9 °F /  -10.6 °C 1018.5 in /  34486.4 hPa ENE 11.3 mph /  18.2 km/h 24.1 mph /  38.8 km/h 54 % 0.0 in /  0 mm
13:37 22.7 °F /  -5.2 °C 13.2 °F /  -10.4 °C 1018.5 in /  34486.4 hPa NE 8.0 mph /  12.9 km/h 24.1 mph /  38.8 km/h 55 % 0.0 in /  0 mm
13:42 22.8 °F /  -5.1 °C 12.7 °F /  -10.7 °C 1018.5 in /  34486.4 hPa NNE 9.7 mph /  15.6 km/h 24.1 mph /  38.8 km/h 53 % 0.0 in /  0 mm
13:52 22.8 °F /  -5.1 °C 12.7 °F /  -10.7 °C 1018.5 in /  34486.4 hPa NNE 9.7 mph /  15.6 km/h 24.1 mph /  38.8 km/h 53 % 0.0 in /  0 mm
13:57 22.8 °F /  -5.1 °C 13.0 °F /  -10.6 °C 1018.5 in /  34486.4 hPa North 14.5 mph /  23.3 km/h 24.1 mph /  38.8 km/h 54 % 0.0 in /  0 mm
14:02 23.1 °F /  -4.9 °C 13.3 °F /  -10.4 °C 1018.5 in /  34486.4 hPa ENE 11.3 mph /  18.2 km/h 24.1 mph /  38.8 km/h 54 % 0.0 in /  0 mm
14:07 23.2 °F /  -4.9 °C 13.4 °F /  -10.3 °C 1018.5 in /  34486.4 hPa North 8.0 mph /  12.9 km/h 22.5 mph /  36.2 km/h 54 % 0.0 in /  0 mm
14:12 23.4 °F /  -4.8 °C 13.3 °F /  -10.4 °C 1018.5 in /  34486.4 hPa NE 12.9 mph /  20.8 km/h 19.3 mph /  31.1 km/h 53 % 0.0 in /  0 mm
14:17 23.4 °F /  -4.8 °C 13.0 °F /  -10.6 °C 1018.5 in /  34486.4 hPa NE 17.7 mph /  28.5 km/h 19.3 mph /  31.1 km/h 52 % 0.0 in /  0 mm
14:22 23.7 °F /  -4.6 °C 13.6 °F /  -10.2 °C 1018.5 in /  34486.4 hPa NNE 9.7 mph /  15.6 km/h 20.9 mph /  33.6 km/h 53 % 0.0 in /  0 mm
14:32 23.9 °F /  -4.5 °C 12.8 °F /  -10.7 °C 1018.5 in /  34486.4 hPa ENE 8.0 mph /  12.9 km/h 17.7 mph /  28.5 km/h 50 % 0.0 in /  0 mm
14:42 24.2 °F /  -4.3 °C 13.7 °F /  -10.2 °C 1018.5 in /  34486.4 hPa NE 9.7 mph /  15.6 km/h 16.1 mph /  25.9 km/h 52 % 0.0 in /  0 mm
14:52 24.4 °F /  -4.2 °C 13.6 °F /  -10.2 °C 1018.2 in /  34476.3 hPa NE 6.4 mph /  10.3 km/h 19.3 mph /  31.1 km/h 51 % 0.0 in /  0 mm
14:57 24.4 °F /  -4.2 °C 13.6 °F /  -10.2 °C 1018.2 in /  34476.3 hPa ENE 8.0 mph /  12.9 km/h 19.3 mph /  31.1 km/h 51 % 0.0 in /  0 mm
15:02 24.4 °F /  -4.2 °C 13.3 °F /  -10.4 °C 1018.2 in /  34476.3 hPa NE 6.4 mph /  10.3 km/h 19.3 mph /  31.1 km/h 50 % 0.0 in /  0 mm
15:12 24.3 °F /  -4.3 °C 12.9 °F /  -10.6 °C 1018.2 in /  34476.3 hPa Calm   17.7 mph /  28.5 km/h 49 % 0.0 in /  0 mm
15:22 24.3 °F /  -4.3 °C 13.2 °F /  -10.4 °C 1018.2 in /  34476.3 hPa East 3.2 mph /  5.1 km/h 17.7 mph /  28.5 km/h 50 % 0.0 in /  0 mm
15:32 24.3 °F /  -4.3 °C 13.5 °F /  -10.3 °C 1017.8 in /  34462.7 hPa ENE 12.9 mph /  20.8 km/h 19.3 mph /  31.1 km/h 51 % 0.0 in /  0 mm
15:37 24.3 °F /  -4.3 °C 13.2 °F /  -10.4 °C 1017.8 in /  34462.7 hPa ENE 9.7 mph /  15.6 km/h 19.3 mph /  31.1 km/h 50 % 0.0 in /  0 mm
15:42 24.4 °F /  -4.2 °C 13.9 °F /  -10.1 °C 1017.5 in /  34452.6 hPa ENE 11.3 mph /  18.2 km/h 19.3 mph /  31.1 km/h 52 % 0.0 in /  0 mm
15:52 24.3 °F /  -4.3 °C 13.8 °F /  -10.1 °C 1017.5 in /  34452.6 hPa NNE 6.4 mph /  10.3 km/h 17.7 mph /  28.5 km/h 52 % 0.0 in /  0 mm
15:57 24.6 °F /  -4.1 °C 13.8 °F /  -10.1 °C 1017.5 in /  34452.6 hPa East 9.7 mph /  15.6 km/h 19.3 mph /  31.1 km/h 51 % 0.0 in /  0 mm
16:02 24.9 °F /  -3.9 °C 14.1 °F /  -9.9 °C 1017.5 in /  34452.6 hPa NE 9.7 mph /  15.6 km/h 19.3 mph /  31.1 km/h 51 % 0.0 in /  0 mm
16:07 24.8 °F /  -4 °C 14.0 °F /  -10 °C 1017.5 in /  34452.6 hPa NE 3.2 mph /  5.1 km/h 19.3 mph /  31.1 km/h 51 % 0.0 in /  0 mm
16:12 24.9 °F /  -3.9 °C 13.8 °F /  -10.1 °C 1017.2 in /  34442.4 hPa NE 8.0 mph /  12.9 km/h 17.7 mph /  28.5 km/h 50 % 0.0 in /  0 mm
16:17 24.9 °F /  -3.9 °C 13.5 °F /  -10.3 °C 1017.5 in /  34452.6 hPa NNW 9.7 mph /  15.6 km/h 17.7 mph /  28.5 km/h 49 % 0.0 in /  0 mm
16:22 24.8 °F /  -4 °C 13.7 °F /  -10.2 °C 1017.5 in /  34452.6 hPa NE 8.0 mph /  12.9 km/h 16.1 mph /  25.9 km/h 50 % 0.0 in /  0 mm
16:32 24.7 °F /  -4.1 °C 13.9 °F /  -10.1 °C 1017.2 in /  34442.4 hPa ENE 3.2 mph /  5.1 km/h 16.1 mph /  25.9 km/h 51 % 0.0 in /  0 mm
16:37 25.1 °F /  -3.8 °C 13.9 °F /  -10.1 °C 1017.2 in /  34442.4 hPa NE 3.2 mph /  5.1 km/h 16.1 mph /  25.9 km/h 50 % 0.0 in /  0 mm
16:42 25.1 °F /  -3.8 °C 13.6 °F /  -10.2 °C 1017.2 in /  34442.4 hPa ENE 9.7 mph /  15.6 km/h 16.1 mph /  25.9 km/h 49 % 0.0 in /  0 mm
16:52 25.1 °F /  -3.8 °C 13.9 °F /  -10.1 °C 1017.2 in /  34442.4 hPa NE 4.8 mph /  7.7 km/h 14.5 mph /  23.3 km/h 50 % 0.0 in /  0 mm
16:57 25.0 °F /  -3.9 °C 14.2 °F /  -9.9 °C 1017.2 in /  34442.4 hPa ENE 9.7 mph /  15.6 km/h 14.5 mph /  23.3 km/h 51 % 0.0 in /  0 mm
17:02 25.1 °F /  -3.8 °C 13.6 °F /  -10.2 °C 1017.2 in /  34442.4 hPa ENE 4.8 mph /  7.7 km/h 14.5 mph /  23.3 km/h 49 % 0.0 in /  0 mm
17:07 25.0 °F /  -3.9 °C 13.9 °F /  -10.1 °C 1017.2 in /  34442.4 hPa NE 11.3 mph /  18.2 km/h 14.5 mph /  23.3 km/h 50 % 0.0 in /  0 mm
17:12 24.9 °F /  -3.9 °C 14.1 °F /  -9.9 °C 1017.2 in /  34442.4 hPa NE 3.2 mph /  5.1 km/h 14.5 mph /  23.3 km/h 51 % 0.0 in /  0 mm
17:17 25.1 °F /  -3.8 °C 13.6 °F /  -10.2 °C 1017.2 in /  34442.4 hPa ENE 8.0 mph /  12.9 km/h 12.9 mph /  20.8 km/h 49 % 0.0 in /  0 mm
17:22 24.9 °F /  -3.9 °C 14.1 °F /  -9.9 °C 1016.8 in /  34428.8 hPa NE 3.2 mph /  5.1 km/h 16.1 mph /  25.9 km/h 51 % 0.0 in /  0 mm
17:27 25.2 °F /  -3.8 °C 14.0 °F /  -10 °C 1016.8 in /  34428.8 hPa NNE 4.8 mph /  7.7 km/h 16.1 mph /  25.9 km/h 50 % 0.0 in /  0 mm
17:32 25.3 °F /  -3.7 °C 14.1 °F /  -9.9 °C 1016.8 in /  34428.8 hPa North 3.2 mph /  5.1 km/h 16.1 mph /  25.9 km/h 50 % 0.0 in /  0 mm
17:37 25.4 °F /  -3.7 °C 13.6 °F /  -10.2 °C 1016.8 in /  34428.8 hPa ENE 4.8 mph /  7.7 km/h 14.5 mph /  23.3 km/h 48 % 0.0 in /  0 mm
17:42 25.3 °F /  -3.7 °C 13.5 °F /  -10.3 °C 1016.8 in /  34428.8 hPa NE 9.7 mph /  15.6 km/h 12.9 mph /  20.8 km/h 48 % 0.0 in /  0 mm
17:47 25.4 °F /  -3.7 °C 14.2 °F /  -9.9 °C 1016.8 in /  34428.8 hPa ENE 6.4 mph /  10.3 km/h 14.5 mph /  23.3 km/h 50 % 0.0 in /  0 mm
17:52 25.4 °F /  -3.7 °C 13.9 °F /  -10.1 °C 1016.8 in /  34428.8 hPa ENE 6.4 mph /  10.3 km/h 16.1 mph /  25.9 km/h 49 % 0.0 in /  0 mm
17:57 25.6 °F /  -3.6 °C 14.4 °F /  -9.8 °C 1016.8 in /  34428.8 hPa NE 8.0 mph /  12.9 km/h 16.1 mph /  25.9 km/h 50 % 0.0 in /  0 mm
18:02 25.4 °F /  -3.7 °C 14.2 °F /  -9.9 °C 1016.8 in /  34428.8 hPa NNE 4.8 mph /  7.7 km/h 16.1 mph /  25.9 km/h 50 % 0.0 in /  0 mm
18:07 25.4 °F /  -3.7 °C 13.9 °F /  -10.1 °C 1016.8 in /  34428.8 hPa East 4.8 mph /  7.7 km/h 14.5 mph /  23.3 km/h 49 % 0.0 in /  0 mm
18:12 25.5 °F /  -3.6 °C 14.3 °F /  -9.8 °C 1016.8 in /  34428.8 hPa NE 1.6 mph /  2.6 km/h 14.5 mph /  23.3 km/h 50 % 0.0 in /  0 mm
18:17 25.8 °F /  -3.4 °C 14.3 °F /  -9.8 °C 1016.5 in /  34418.7 hPa NNE 6.4 mph /  10.3 km/h 14.5 mph /  23.3 km/h 49 % 0.0 in /  0 mm
18:27 26.0 °F /  -3.3 °C 14.1 °F /  -9.9 °C 1016.5 in /  34418.7 hPa NE 9.7 mph /  15.6 km/h 14.5 mph /  23.3 km/h 48 % 0.0 in /  0 mm
18:32 25.8 °F /  -3.4 °C 14.3 °F /  -9.8 °C 1016.1 in /  34405.1 hPa NNE 8.0 mph /  12.9 km/h 14.5 mph /  23.3 km/h 49 % 0.0 in /  0 mm
18:37 25.7 °F /  -3.5 °C 14.2 °F /  -9.9 °C 1016.1 in /  34405.1 hPa North 4.8 mph /  7.7 km/h 25.7 mph /  41.4 km/h 49 % 0.0 in /  0 mm
18:42 25.6 °F /  -3.6 °C 14.1 °F /  -9.9 °C 1016.1 in /  34405.1 hPa NE 4.8 mph /  7.7 km/h 25.7 mph /  41.4 km/h 49 % 0.0 in /  0 mm
18:47 25.5 °F /  -3.6 °C 14.0 °F /  -10 °C 1016.1 in /  34405.1 hPa NNE 11.3 mph /  18.2 km/h 20.9 mph /  33.6 km/h 49 % 0.0 in /  0 mm
18:52 25.6 °F /  -3.6 °C 14.7 °F /  -9.6 °C 1016.1 in /  34405.1 hPa NNE 9.7 mph /  15.6 km/h 20.9 mph /  33.6 km/h 51 % 0.0 in /  0 mm
19:02 25.2 °F /  -3.8 °C 14.6 °F /  -9.7 °C 1016.5 in /  34418.7 hPa North 6.4 mph /  10.3 km/h 20.9 mph /  33.6 km/h 52 % 0.0 in /  0 mm
19:12 25.1 °F /  -3.8 °C 15.1 °F /  -9.4 °C 1016.5 in /  34418.7 hPa NE 8.0 mph /  12.9 km/h 19.3 mph /  31.1 km/h 54 % 0.0 in /  0 mm
19:17 25.0 °F /  -3.9 °C 15.0 °F /  -9.4 °C 1016.5 in /  34418.7 hPa ENE 6.4 mph /  10.3 km/h 19.3 mph /  31.1 km/h 54 % 0.0 in /  0 mm
19:22 25.1 °F /  -3.8 °C 15.1 °F /  -9.4 °C 1016.8 in /  34428.8 hPa NNE 12.9 mph /  20.8 km/h 17.7 mph /  28.5 km/h 54 % 0.0 in /  0 mm
19:32 24.8 °F /  -4 °C 14.9 °F /  -9.5 °C 1016.5 in /  34418.7 hPa NE 16.1 mph /  25.9 km/h 20.9 mph /  33.6 km/h 54 % 0.0 in /  0 mm
19:37 24.7 °F /  -4.1 °C 14.8 °F /  -9.6 °C 1016.8 in /  34428.8 hPa NE 9.7 mph /  15.6 km/h 20.9 mph /  33.6 km/h 54 % 0.0 in /  0 mm
19:42 24.8 °F /  -4 °C 14.9 °F /  -9.5 °C 1017.2 in /  34442.4 hPa ENE 8.0 mph /  12.9 km/h 20.9 mph /  33.6 km/h 54 % 0.0 in /  0 mm
19:47 24.6 °F /  -4.1 °C 14.7 °F /  -9.6 °C 1017.2 in /  34442.4 hPa NE 14.5 mph /  23.3 km/h 20.9 mph /  33.6 km/h 54 % 0.0 in /  0 mm
19:52 24.4 °F /  -4.2 °C 14.8 °F /  -9.6 °C 1017.2 in /  34442.4 hPa ENE 6.4 mph /  10.3 km/h 19.3 mph /  31.1 km/h 55 % 0.0 in /  0 mm
19:57 24.2 °F /  -4.3 °C 14.6 °F /  -9.7 °C 1017.2 in /  34442.4 hPa North 12.9 mph /  20.8 km/h 19.3 mph /  31.1 km/h 55 % 0.0 in /  0 mm
20:02 24.0 °F /  -4.4 °C 14.7 °F /  -9.6 °C 1017.2 in /  34442.4 hPa NE 8.0 mph /  12.9 km/h 19.3 mph /  31.1 km/h 56 % 0.0 in /  0 mm
20:07 23.8 °F /  -4.6 °C 14.8 °F /  -9.6 °C 1017.2 in /  34442.4 hPa NNW 6.4 mph /  10.3 km/h 19.3 mph /  31.1 km/h 57 % 0.0 in /  0 mm
20:12 23.6 °F /  -4.7 °C 14.9 °F /  -9.5 °C 1017.2 in /  34442.4 hPa NNE 6.4 mph /  10.3 km/h 19.3 mph /  31.1 km/h 58 % 0.0 in /  0 mm
20:17 23.3 °F /  -4.8 °C 14.8 °F /  -9.6 °C 1017.2 in /  34442.4 hPa North 4.8 mph /  7.7 km/h 14.5 mph /  23.3 km/h 59 % 0.0 in /  0 mm
20:22 23.1 °F /  -4.9 °C 14.4 °F /  -9.8 °C 1017.5 in /  34452.6 hPa NNW 8.0 mph /  12.9 km/h 11.3 mph /  18.2 km/h 58 % 0.0 in /  0 mm
20:32 22.7 °F /  -5.2 °C 14.0 °F /  -10 °C 1017.5 in /  34452.6 hPa NNE 6.4 mph /  10.3 km/h 12.9 mph /  20.8 km/h 58 % 0.0 in /  0 mm
20:37 22.6 °F /  -5.2 °C 14.2 °F /  -9.9 °C 1017.5 in /  34452.6 hPa NNW 8.0 mph /  12.9 km/h 12.9 mph /  20.8 km/h 59 % 0.0 in /  0 mm
20:42 22.4 °F /  -5.3 °C 14.0 °F /  -10 °C 1017.5 in /  34452.6 hPa NNW 8.0 mph /  12.9 km/h 12.9 mph /  20.8 km/h 59 % 0.0 in /  0 mm
20:47 22.3 °F /  -5.4 °C 13.9 °F /  -10.1 °C 1017.5 in /  34452.6 hPa NNW 8.0 mph /  12.9 km/h 14.5 mph /  23.3 km/h 59 % 0.0 in /  0 mm
20:52 22.2 °F /  -5.4 °C 13.8 °F /  -10.1 °C 1017.5 in /  34452.6 hPa NNE 8.0 mph /  12.9 km/h 14.5 mph /  23.3 km/h 59 % 0.0 in /  0 mm
20:57 21.9 °F /  -5.6 °C 13.5 °F /  -10.3 °C 1017.2 in /  34442.4 hPa North 12.9 mph /  20.8 km/h 16.1 mph /  25.9 km/h 59 % 0.0 in /  0 mm
21:02 21.8 °F /  -5.7 °C 13.4 °F /  -10.3 °C 1017.2 in /  34442.4 hPa NNE 6.4 mph /  10.3 km/h 16.1 mph /  25.9 km/h 59 % 0.0 in /  0 mm
21:12 21.6 °F /  -5.8 °C 13.0 °F /  -10.6 °C 1017.2 in /  34442.4 hPa NNE 8.0 mph /  12.9 km/h 22.5 mph /  36.2 km/h 58 % 0.0 in /  0 mm
21:17 21.5 °F /  -5.8 °C 12.9 °F /  -10.6 °C 1016.8 in /  34428.8 hPa NNE 12.9 mph /  20.8 km/h 22.5 mph /  36.2 km/h 58 % 0.0 in /  0 mm
21:22 21.5 °F /  -5.8 °C 12.6 °F /  -10.8 °C 1016.5 in /  34418.7 hPa NE 20.9 mph /  33.6 km/h 22.5 mph /  36.2 km/h 57 % 0.0 in /  0 mm
21:32 21.5 °F /  -5.8 °C 12.4 °F /  -10.9 °C 1016.1 in /  34405.1 hPa ENE 11.3 mph /  18.2 km/h 22.5 mph /  36.2 km/h 56 % 0.0 in /  0 mm
21:37 21.5 °F /  -5.8 °C 12.4 °F /  -10.9 °C 1016.5 in /  34418.7 hPa NNE 17.7 mph /  28.5 km/h 25.7 mph /  41.4 km/h 56 % 0.0 in /  0 mm
21:42 21.4 °F /  -5.9 °C 12.3 °F /  -10.9 °C 1016.5 in /  34418.7 hPa NNE 9.7 mph /  15.6 km/h 25.7 mph /  41.4 km/h 56 % 0.0 in /  0 mm
21:52 21.1 °F /  -6.1 °C 12.5 °F /  -10.8 °C 1016.5 in /  34418.7 hPa WNW 6.4 mph /  10.3 km/h 22.5 mph /  36.2 km/h 58 % 0.0 in /  0 mm
21:57 21.0 °F /  -6.1 °C 12.9 °F /  -10.6 °C 1016.5 in /  34418.7 hPa NNE 3.2 mph /  5.1 km/h 16.1 mph /  25.9 km/h 60 % 0.0 in /  0 mm
22:02 20.8 °F /  -6.2 °C 13.3 °F /  -10.4 °C 1016.5 in /  34418.7 hPa NNE 12.9 mph /  20.8 km/h 19.3 mph /  31.1 km/h 62 % 0.0 in /  0 mm
22:07 20.7 °F /  -6.3 °C 13.2 °F /  -10.4 °C 1016.5 in /  34418.7 hPa North 9.7 mph /  15.6 km/h 22.5 mph /  36.2 km/h 62 % 0.0 in /  0 mm
22:12 20.7 °F /  -6.3 °C 13.2 °F /  -10.4 °C 1016.8 in /  34428.8 hPa North 4.8 mph /  7.7 km/h 22.5 mph /  36.2 km/h 62 % 0.0 in /  0 mm
22:17 20.6 °F /  -6.3 °C 13.3 °F /  -10.4 °C 1017.2 in /  34442.4 hPa NE 20.9 mph /  33.6 km/h 22.5 mph /  36.2 km/h 63 % 0.0 in /  0 mm
22:22 20.6 °F /  -6.3 °C 13.3 °F /  -10.4 °C 1017.2 in /  34442.4 hPa NE 16.1 mph /  25.9 km/h 24.1 mph /  38.8 km/h 63 % 0.0 in /  0 mm
22:32 20.3 °F /  -6.5 °C 13.3 °F /  -10.4 °C 1017.5 in /  34452.6 hPa NNE 8.0 mph /  12.9 km/h 24.1 mph /  38.8 km/h 64 % 0.0 in /  0 mm
22:37 20.3 °F /  -6.5 °C 13.3 °F /  -10.4 °C 1017.5 in /  34452.6 hPa ENE 8.0 mph /  12.9 km/h 20.9 mph /  33.6 km/h 64 % 0.0 in /  0 mm
22:42 20.2 °F /  -6.6 °C 13.4 °F /  -10.3 °C 1017.2 in /  34442.4 hPa NE 11.3 mph /  18.2 km/h 20.9 mph /  33.6 km/h 65 % 0.0 in /  0 mm
22:52 20.0 °F /  -6.7 °C 13.5 °F /  -10.3 °C 1017.8 in /  34462.7 hPa NNE 8.0 mph /  12.9 km/h 25.7 mph /  41.4 km/h 66 % 0.0 in /  0 mm
22:57 19.9 °F /  -6.7 °C 13.6 °F /  -10.2 °C 1017.8 in /  34462.7 hPa NE 4.8 mph /  7.7 km/h 25.7 mph /  41.4 km/h 67 % 0.0 in /  0 mm
23:02 19.8 °F /  -6.8 °C 13.7 °F /  -10.2 °C 1017.8 in /  34462.7 hPa NE 12.9 mph /  20.8 km/h 25.7 mph /  41.4 km/h 68 % 0.0 in /  0 mm
23:12 19.7 °F /  -6.8 °C 13.9 °F /  -10.1 °C 1018.2 in /  34476.3 hPa North 6.4 mph /  10.3 km/h 14.5 mph /  23.3 km/h 69 % 0.0 in /  0 mm
23:22 19.5 °F /  -6.9 °C 13.7 °F /  -10.2 °C 1018.8 in /  34496.6 hPa NNE 1.6 mph /  2.6 km/h 14.5 mph /  23.3 km/h 69 % 0.0 in /  0 mm
23:27 19.4 °F /  -7 °C 13.8 °F /  -10.1 °C 1018.8 in /  34496.6 hPa Calm   14.5 mph /  23.3 km/h 70 % 0.0 in /  0 mm
23:32 19.4 °F /  -7 °C 14.0 °F /  -10 °C 1018.8 in /  34496.6 hPa Calm   14.5 mph /  23.3 km/h 71 % 0.0 in /  0 mm
23:37 19.2 °F /  -7.1 °C 14.0 °F /  -10 °C 1018.8 in /  34496.6 hPa Calm   6.4 mph /  10.3 km/h 72 % 0.0 in /  0 mm
23:42 19.0 °F /  -7.2 °C 14.3 °F /  -9.8 °C 1018.8 in /  34496.6 hPa NE 3.2 mph /  5.1 km/h 6.4 mph /  10.3 km/h 74 % 0.0 in /  0 mm
23:47 18.8 °F /  -7.3 °C 13.9 °F /  -10.1 °C 1018.5 in /  34486.4 hPa ENE 4.8 mph /  7.7 km/h 11.3 mph /  18.2 km/h 73 % 0.0 in /  0 mm
23:52 18.7 °F /  -7.4 °C 14.4 °F /  -9.8 °C 1017.8 in /  34462.7 hPa NE 4.8 mph /  7.7 km/h 17.7 mph /  28.5 km/h 76 % 0.0 in /  0 mm
Meteo18
Compliments of Weather Underground - 4 mb

Script developed by  Jim McMurry - jmcmurry@mwt.net Adapted for the template by  Wim van der Kuil - Leuven-Template.eu

You find our weather info also at:

European Weather Network

Weather Underground

Equipment we use:

Weather-station
Davis Vue

Weather-program
Meteobridge

Weather-server
Raspberry PI 2 B+

Provider
1 and 1

Davis Vue

Meteobridge

Raspberry PI 2 B+

1 and 1